deformed-offering

Current conditions - KSJC (San Jose International)


Coded METAR: 2017/04/25 21:53 KSJC 252153Z 31015G20KT 10SM FEW018 FEW043 BKN170 19/10 A3009 RMK AO2 SLP189 T01940100

Weather Report

Report issued: Tue 25th Apr at 14:53 PDT

Wind: moderate breeze from the Northwest (310 degrees) at 15 knots (17 mph, 28 kph, Force 4) gusting to 20 knots (23 mph 37 kph)
Visibility: 10 statute miles
Cloud: a few clouds at 1800 feet
Cloud: a few clouds at 4300 feet
Cloud: broken at 17000 feet
Temperature: 66F / 19C
Dewpoint: 50F / 10C
Humidity: 56%
Pressure: 30.09 inches of mercury

Current conditions - KNUQ (Moffett NAS)


Coded METAR: 2017/04/25 21:56 KNUQ 252156Z 35016KT 10SM FEW037 18/11 A3010 RMK AO2 SLP194 T01830106

Weather Report

Report issued: Tue 25th Apr at 14:56 PDT

Wind: moderate breeze from the North (350 degrees) at 16 knots (18 mph, 30 kph, Force 4)
Visibility: 10 statute miles
Cloud: a few clouds at 3700 feet
Temperature: 64F / 18C
Dewpoint: 52F / 11C
Humidity: 64%
Pressure: 30.10 inches of mercury

Current conditions - KRHV (Reid-Hillview Airport - San Jose)


Coded METAR: 2017/04/25 19:50 KRHV 251950Z 33009KT 10SM FEW030 BKN150 19/06 A3013

Weather Report

Report issued: Tue 25th Apr at 12:50 PDT

Wind: gentle breeze from North-Northwest (330 degrees) at 9 knots (10 mph, 17 kph, Force 3)
Visibility: 10 statute miles
Cloud: a few clouds at 3000 feet
Cloud: broken at 15000 feet
Temperature: 66F / 19C
Dewpoint: 43F / 6C
Humidity: 43%
Pressure: 30.13 inches of mercury

Current conditions - KPAO (Palo Alto Airport)


Coded METAR: 2017/04/25 20:47 KPAO 252047Z 33013G20KT 10SM SCT035 BKN130 19/12 A3009

Weather Report

Report issued: Tue 25th Apr at 13:47 PDT

Wind: moderate breeze from North-Northwest (330 degrees) at 13 knots (15 mph, 24 kph, Force 4) gusting to 20 knots (23 mph 37 kph)
Visibility: 10 statute miles
Cloud: scattered at 3500 feet
Cloud: broken at 13000 feet
Temperature: 66F / 19C
Dewpoint: 54F / 12C
Humidity: 64%
Pressure: 30.09 inches of mercury

 

deformed-offering